createdAt,value
2018-11-06T00:01:09.956Z,8.13
2018-11-06T00:03:50.656Z,5.70
2018-11-06T00:06:23.079Z,5.03
2018-11-06T00:08:56.089Z,6.67
2018-11-06T00:11:28.661Z,4.60
2018-11-06T00:14:01.324Z,8.27
2018-11-06T00:16:34.307Z,5.30
2018-11-06T00:19:06.976Z,6.40
2018-11-06T00:21:39.604Z,4.23
2018-11-06T00:24:12.255Z,5.30
2018-11-06T00:26:45.165Z,4.63
2018-11-06T00:29:17.498Z,4.50
2018-11-06T00:31:49.770Z,3.80
2018-11-06T00:34:22.981Z,5.03
2018-11-06T00:36:55.681Z,5.53
2018-11-06T00:39:28.661Z,5.77
2018-11-06T00:42:01.597Z,8.97
2018-11-06T00:44:34.318Z,3.10
2018-11-06T00:47:07.181Z,6.40
2018-11-06T00:49:39.562Z,9.63
2018-11-06T00:52:12.200Z,7.17
2018-11-06T00:54:44.802Z,8.53
2018-11-06T00:57:17.426Z,6.53
2018-11-06T00:59:51.327Z,5.47
2018-11-06T01:02:24.155Z,7.07
2018-11-06T01:04:56.713Z,6.53
2018-11-06T01:07:29.593Z,17.00
2018-11-06T01:10:01.904Z,12.70
2018-11-06T01:12:34.953Z,12.63
2018-11-06T01:15:08.488Z,12.97
2018-11-06T01:17:41.940Z,9.60
2018-11-06T01:20:16.170Z,12.30
2018-11-06T01:22:49.065Z,13.17
2018-11-06T01:25:22.289Z,10.60
2018-11-06T01:27:55.156Z,14.23
2018-11-06T01:30:27.744Z,13.43
2018-11-06T01:33:00.710Z,10.73
2018-11-06T01:35:33.565Z,11.10
2018-11-06T01:38:06.160Z,10.13
2018-11-06T01:40:38.544Z,10.30
2018-11-06T01:43:10.952Z,11.77
2018-11-06T01:45:43.670Z,11.57
2018-11-06T01:48:16.294Z,14.23
2018-11-06T01:50:48.797Z,8.00
2018-11-06T01:53:21.221Z,7.33
2018-11-06T01:55:53.689Z,6.50
2018-11-06T01:58:26.587Z,6.60
2018-11-06T02:00:59.008Z,6.07
2018-11-06T02:03:31.788Z,11.00
2018-11-06T02:06:04.531Z,17.10
2018-11-06T02:08:37.108Z,28.37
2018-11-06T02:11:09.738Z,30.77
2018-11-06T02:13:42.678Z,37.20
2018-11-06T02:16:14.921Z,35.57
2018-11-06T02:18:47.735Z,34.70
2018-11-06T02:21:20.149Z,34.03
2018-11-06T02:23:52.596Z,41.33
2018-11-06T02:26:25.198Z,42.37
2018-11-06T02:28:58.162Z,36.00
2018-11-06T02:31:31.718Z,24.80
2018-11-06T02:34:04.313Z,54.00
2018-11-06T02:36:36.896Z,39.23
2018-11-06T02:39:11.595Z,41.20
2018-11-06T02:41:44.398Z,21.00
2018-11-06T02:44:16.968Z,22.80
2018-11-06T02:46:49.072Z,19.33
2018-11-06T02:49:21.587Z,15.20
2018-11-06T02:51:54.249Z,18.20
2018-11-06T02:54:26.873Z,13.47
2018-11-06T02:56:59.251Z,17.47
2018-11-06T02:59:32.257Z,17.83
2018-11-06T03:02:04.951Z,7.37
2018-11-06T03:04:37.244Z,13.33
2018-11-06T03:07:09.961Z,11.27
2018-11-06T03:09:42.439Z,11.60
2018-11-06T03:12:14.620Z,10.53
2018-11-06T03:14:47.610Z,13.50
2018-11-06T03:17:20.284Z,18.97
2018-11-06T03:19:52.773Z,14.73
2018-11-06T03:22:25.160Z,11.80
2018-11-06T03:24:57.759Z,12.40
2018-11-06T03:27:30.205Z,10.10
2018-11-06T03:30:02.798Z,10.07
2018-11-06T03:32:35.400Z,10.50
2018-11-06T03:35:08.664Z,11.73
2018-11-06T03:37:41.934Z,10.20
2018-11-06T03:40:15.243Z,9.70
2018-11-06T03:42:47.802Z,11.90
2018-11-06T03:45:20.481Z,8.80
2018-11-06T03:47:52.919Z,10.07
2018-11-06T03:50:25.256Z,12.73
2018-11-06T03:52:57.896Z,18.40
2018-11-06T03:55:30.508Z,8.77
2018-11-06T03:58:02.992Z,13.63
2018-11-06T04:00:35.502Z,14.17
2018-11-06T04:03:08.144Z,12.23
2018-11-06T04:05:40.798Z,9.53
2018-11-06T04:08:14.203Z,10.47
2018-11-06T04:10:46.655Z,8.80
2018-11-06T04:13:19.186Z,14.33
2018-11-06T04:15:51.849Z,9.30
2018-11-06T04:18:24.356Z,11.30
2018-11-06T04:20:56.569Z,18.80
2018-11-06T04:23:28.967Z,16.60
2018-11-06T04:26:01.364Z,16.47
2018-11-06T04:28:33.712Z,10.03
2018-11-06T04:31:06.754Z,10.77
2018-11-06T04:33:39.146Z,9.50
2018-11-06T04:36:11.524Z,14.00
2018-11-06T04:38:43.926Z,11.80
2018-11-06T04:41:16.728Z,9.50
2018-11-06T04:43:49.474Z,10.33
2018-11-06T04:46:21.805Z,8.90
2018-11-06T04:48:54.545Z,8.07
2018-11-06T04:51:27.326Z,14.03
2018-11-06T04:54:01.018Z,7.13
2018-11-06T04:56:34.060Z,14.03
2018-11-06T04:59:07.195Z,9.60
2018-11-06T05:01:39.457Z,9.20
2018-11-06T05:04:12.586Z,12.90
2018-11-06T05:06:45.667Z,8.80
2018-11-06T05:09:18.605Z,11.50
2018-11-06T05:11:51.473Z,14.17
2018-11-06T05:14:23.948Z,17.97
2018-11-06T05:16:56.727Z,9.77
2018-11-06T05:19:29.021Z,9.37
2018-11-06T05:22:01.504Z,13.43
2018-11-06T05:24:34.331Z,12.67
2018-11-06T05:27:06.802Z,13.53
2018-11-06T05:29:38.722Z,9.60
2018-11-06T05:32:10.825Z,12.47
2018-11-06T05:34:43.113Z,12.30
2018-11-06T05:37:16.082Z,12.20
2018-11-06T05:39:57.686Z,17.60
2018-11-06T05:42:30.115Z,12.77
2018-11-06T05:45:02.536Z,22.03
2018-11-06T05:47:35.247Z,16.10
2018-11-06T05:50:07.723Z,16.77
2018-11-06T05:52:40.150Z,23.37
2018-11-06T05:55:12.583Z,24.30
2018-11-06T05:57:44.817Z,19.00
2018-11-06T06:00:17.333Z,12.00
2018-11-06T06:02:49.709Z,17.40
2018-11-06T06:05:22.321Z,12.43
2018-11-06T06:07:54.955Z,19.03
2018-11-06T06:10:27.102Z,15.20
2018-11-06T06:12:59.413Z,12.90
2018-11-06T06:15:32.118Z,13.20
2018-11-06T06:18:04.841Z,11.73
2018-11-06T06:20:37.144Z,9.93
2018-11-06T06:23:09.460Z,15.33
2018-11-06T06:25:42.326Z,13.40
2018-11-06T06:28:14.735Z,12.10
2018-11-06T06:30:47.630Z,13.87
2018-11-06T06:33:20.099Z,16.17
2018-11-06T06:35:52.757Z,7.00
2018-11-06T06:38:25.175Z,10.03
2018-11-06T06:40:58.052Z,11.97
2018-11-06T06:43:30.658Z,10.93
2018-11-06T06:46:03.535Z,18.40
2018-11-06T06:48:36.213Z,10.10
2018-11-06T06:51:10.077Z,10.90
2018-11-06T06:53:42.483Z,7.33
2018-11-06T06:56:15.276Z,11.63
2018-11-06T06:58:48.476Z,12.07
2018-11-06T07:01:20.872Z,13.70
2018-11-06T07:03:53.757Z,15.60
2018-11-06T07:06:26.488Z,9.50
2018-11-06T07:08:59.374Z,13.47
2018-11-06T07:11:31.837Z,13.77
2018-11-06T07:14:04.425Z,15.03
2018-11-06T07:16:37.132Z,16.47
2018-11-06T07:19:10.314Z,18.70
2018-11-06T07:21:43.389Z,14.30
2018-11-06T07:24:16.201Z,12.53
2018-11-06T07:26:49.134Z,12.50
2018-11-06T07:29:21.719Z,14.03
2018-11-06T07:31:54.329Z,14.47
2018-11-06T07:34:26.738Z,9.63
2018-11-06T07:36:59.427Z,11.43
2018-11-06T07:39:48.320Z,11.90
2018-11-06T07:42:20.966Z,15.27
2018-11-06T07:44:53.512Z,16.13
2018-11-06T07:47:25.991Z,17.13
2018-11-06T07:49:58.558Z,19.67
2018-11-06T07:52:31.260Z,13.77
2018-11-06T07:55:03.898Z,12.00
2018-11-06T07:57:36.725Z,12.00
2018-11-06T08:00:14.764Z,12.43
2018-11-06T08:02:48.143Z,9.87
2018-11-06T08:05:20.679Z,16.77
2018-11-06T08:07:53.911Z,11.10
2018-11-06T08:10:26.862Z,8.83
2018-11-06T08:12:59.558Z,14.10
2018-11-06T08:15:31.902Z,14.80
2018-11-06T08:18:04.123Z,11.33
2018-11-06T08:20:36.998Z,10.13
2018-11-06T08:23:09.442Z,11.17
2018-11-06T08:25:42.195Z,15.70
2018-11-06T08:28:14.507Z,10.87
2018-11-06T08:30:47.145Z,12.93
2018-11-06T08:33:19.826Z,9.93
2018-11-06T08:35:52.916Z,9.13
2018-11-06T08:38:25.682Z,9.00
2018-11-06T08:40:58.533Z,15.30
2018-11-06T08:43:31.070Z,10.03
2018-11-06T08:46:03.643Z,18.33
2018-11-06T08:48:36.895Z,14.07
2018-11-06T08:51:09.370Z,8.90
2018-11-06T08:53:42.544Z,10.37
2018-11-06T08:56:15.356Z,12.80
2018-11-06T08:58:48.094Z,11.73
2018-11-06T09:01:21.228Z,10.70
2018-11-06T09:03:54.098Z,13.97
2018-11-06T09:06:27.290Z,13.30
2018-11-06T09:09:00.376Z,13.17
2018-11-06T09:11:32.820Z,11.97
2018-11-06T09:14:06.031Z,12.50
2018-11-06T09:16:39.173Z,11.77
2018-11-06T09:19:11.591Z,13.87
2018-11-06T09:21:44.492Z,15.70
2018-11-06T09:24:16.986Z,12.00
2018-11-06T09:26:49.354Z,16.33
2018-11-06T09:29:22.351Z,12.40
2018-11-06T09:31:55.644Z,11.77
2018-11-06T09:34:28.214Z,13.40
2018-11-06T09:37:00.958Z,16.27
2018-11-06T09:39:34.241Z,13.10
2018-11-06T09:42:06.675Z,9.43
2018-11-06T09:44:40.173Z,9.43
2018-11-06T09:47:12.789Z,12.70
2018-11-06T09:49:45.729Z,11.53
2018-11-06T09:52:18.422Z,14.23
2018-11-06T09:54:50.972Z,16.97
2018-11-06T09:57:23.629Z,16.80
2018-11-06T09:59:56.301Z,16.13
2018-11-06T10:02:29.273Z,16.37
2018-11-06T10:05:02.391Z,14.67
2018-11-06T10:07:35.206Z,15.07
2018-11-06T10:10:08.870Z,13.13
2018-11-06T10:12:42.119Z,16.93
2018-11-06T10:15:17.152Z,10.93
2018-11-06T10:17:50.569Z,13.93
2018-11-06T10:20:23.605Z,15.13
2018-11-06T10:22:56.342Z,25.67
2018-11-06T10:25:29.294Z,22.37
2018-11-06T10:28:02.406Z,23.10
2018-11-06T10:30:35.182Z,28.17
2018-11-06T10:33:08.115Z,14.07
2018-11-06T10:35:40.847Z,14.83
2018-11-06T10:38:13.448Z,17.67
2018-11-06T10:40:45.921Z,14.00
2018-11-06T10:43:18.718Z,10.77
2018-11-06T10:45:51.706Z,16.77
2018-11-06T10:48:24.135Z,13.07
2018-11-06T10:50:56.606Z,18.17
2018-11-06T10:53:29.545Z,20.50
2018-11-06T10:56:02.313Z,15.03
2018-11-06T10:58:34.652Z,13.97
2018-11-06T11:01:12.487Z,15.90
2018-11-06T11:03:49.375Z,18.93
2018-11-06T11:06:22.231Z,25.93
2018-11-06T11:08:55.270Z,15.70
2018-11-06T11:11:28.534Z,16.97
2018-11-06T11:14:00.984Z,17.70
2018-11-06T11:16:33.744Z,15.63
2018-11-06T11:19:06.893Z,22.80
2018-11-06T11:21:39.328Z,16.83
2018-11-06T11:24:11.899Z,16.40
2018-11-06T11:26:45.195Z,15.47
2018-11-06T11:29:18.018Z,16.43
2018-11-06T11:31:51.010Z,21.83
2018-11-06T11:34:23.735Z,17.07
2018-11-06T11:36:56.499Z,21.50
2018-11-06T11:39:28.978Z,15.90
2018-11-06T11:42:02.090Z,18.00
2018-11-06T11:44:34.922Z,15.80
2018-11-06T11:47:07.678Z,15.60
2018-11-06T11:49:40.624Z,15.17
2018-11-06T11:52:13.024Z,13.20
2018-11-06T11:54:45.895Z,14.83
2018-11-06T11:57:18.418Z,15.40
2018-11-06T11:59:50.834Z,13.93
2018-11-06T12:02:23.889Z,13.73
2018-11-06T12:04:56.552Z,14.17
2018-11-06T12:07:29.773Z,18.43
2018-11-06T12:10:02.629Z,36.47
2018-11-06T12:12:35.418Z,14.10
2018-11-06T12:15:09.093Z,18.62
2018-11-06T12:17:42.567Z,17.17
2018-11-06T12:20:15.635Z,11.65
2018-11-06T12:22:48.680Z,14.40
2018-11-06T12:25:22.696Z,12.18
2018-11-06T12:27:55.423Z,13.43
2018-11-06T12:30:28.150Z,15.72
2018-11-06T12:33:01.195Z,14.73
2018-11-06T12:35:34.308Z,12.65
2018-11-06T12:38:07.514Z,22.40
2018-11-06T12:40:40.200Z,37.08
2018-11-06T12:43:12.671Z,15.75
2018-11-06T12:45:46.053Z,15.85
2018-11-06T12:48:19.643Z,18.87
2018-11-06T12:50:52.325Z,22.17
2018-11-06T12:53:25.364Z,31.68
2018-11-06T12:55:58.340Z,21.55
2018-11-06T12:58:31.055Z,30.77
2018-11-06T13:01:03.740Z,32.63
2018-11-06T13:03:36.544Z,15.23
2018-11-06T13:06:09.414Z,29.63
2018-11-06T13:08:42.398Z,30.88
2018-11-06T13:11:14.920Z,37.73
2018-11-06T13:13:47.762Z,28.75
2018-11-06T13:16:20.746Z,30.08
2018-11-06T13:18:53.562Z,41.37
2018-11-06T13:21:26.127Z,47.00
2018-11-06T13:23:58.770Z,54.48
2018-11-06T13:26:31.799Z,72.08
2018-11-06T13:29:04.482Z,46.68
2018-11-06T13:31:37.012Z,36.95
2018-11-06T13:34:09.530Z,43.28
2018-11-06T13:36:42.050Z,21.65
2018-11-06T13:39:15.293Z,29.70
2018-11-06T13:41:47.723Z,45.38
2018-11-06T13:44:20.603Z,41.98
2018-11-06T13:46:53.360Z,38.78
2018-11-06T13:49:26.372Z,42.23
2018-11-06T13:51:59.366Z,49.88
2018-11-06T13:54:31.887Z,35.75
2018-11-06T13:57:04.892Z,39.65
2018-11-06T13:59:37.706Z,40.28
2018-11-06T14:02:10.592Z,48.08
2018-11-06T14:04:43.145Z,46.00
2018-11-06T14:07:16.060Z,50.10
2018-11-06T14:09:48.825Z,155.70
2018-11-06T14:12:21.279Z,134.47
2018-11-06T14:14:53.768Z,115.62
2018-11-06T14:17:26.190Z,131.70
2018-11-06T14:19:59.382Z,74.92
2018-11-06T14:22:32.580Z,138.45
2018-11-06T14:25:04.783Z,257.12
2018-11-06T14:27:37.645Z,250.65
2018-11-06T14:30:13.565Z,48.48
2018-11-06T14:32:46.127Z,61.05
2018-11-06T14:35:20.192Z,36.40
2018-11-06T14:37:53.034Z,37.70
2018-11-06T14:40:25.386Z,29.23
2018-11-06T14:42:58.391Z,29.48
2018-11-06T14:45:31.130Z,29.87
2018-11-06T14:48:03.853Z,48.42
2018-11-06T14:50:37.491Z,34.38
2018-11-06T14:53:10.459Z,30.52
2018-11-06T14:55:43.262Z,37.13
2018-11-06T14:58:15.710Z,30.88
2018-11-06T15:00:48.275Z,44.73
2018-11-06T15:03:20.828Z,38.98
2018-11-06T15:05:53.001Z,36.40
2018-11-06T15:08:25.454Z,80.53
2018-11-06T15:10:57.945Z,62.43
2018-11-06T15:13:30.856Z,95.35
2018-11-06T15:16:03.781Z,38.90
2018-11-06T15:18:36.278Z,115.08
2018-11-06T15:21:08.968Z,65.47
2018-11-06T15:23:41.419Z,49.45
2018-11-06T15:26:14.042Z,86.92
2018-11-06T15:28:46.672Z,71.57
2018-11-06T15:31:18.802Z,43.85
2018-11-06T15:33:51.773Z,157.72
2018-11-06T15:36:24.224Z,55.33
2018-11-06T15:38:58.566Z,114.75
2018-11-06T15:41:31.589Z,53.17
2018-11-06T15:44:04.525Z,123.87
2018-11-06T15:46:37.393Z,80.57
2018-11-06T15:49:10.409Z,130.18
2018-11-06T15:51:43.878Z,54.73
2018-11-06T15:54:16.723Z,71.53
2018-11-06T15:56:49.601Z,63.42
2018-11-06T15:59:22.319Z,37.70
2018-11-06T16:01:54.954Z,45.40
2018-11-06T16:04:27.653Z,66.33
2018-11-06T16:07:00.621Z,91.20
2018-11-06T16:09:33.291Z,94.93
2018-11-06T16:12:05.722Z,70.07
2018-11-06T16:14:38.605Z,74.65
2018-11-06T16:17:11.836Z,54.10
2018-11-06T16:19:44.713Z,43.60
2018-11-06T16:22:17.805Z,40.30
2018-11-06T16:24:51.147Z,30.60
2018-11-06T16:27:23.569Z,33.63
2018-11-06T16:29:56.532Z,33.17
2018-11-06T16:32:29.447Z,32.77
2018-11-06T16:35:02.287Z,35.53
2018-11-06T16:37:35.057Z,31.57
2018-11-06T16:40:08.432Z,42.60
2018-11-06T16:42:41.495Z,35.00
2018-11-06T16:45:15.977Z,32.00
2018-11-06T16:47:49.683Z,30.20
2018-11-06T16:50:23.074Z,28.80
2018-11-06T16:52:56.317Z,28.77
2018-11-06T16:55:29.215Z,30.17
2018-11-06T16:58:01.732Z,27.60
2018-11-06T17:00:34.496Z,22.20
2018-11-06T17:03:07.657Z,26.03
2018-11-06T17:05:40.810Z,27.87
2018-11-06T17:08:13.448Z,29.13
2018-11-06T17:10:45.661Z,30.33
2018-11-06T17:13:18.915Z,19.27
2018-11-06T17:15:51.699Z,19.90
2018-11-06T17:18:24.190Z,24.03
2018-11-06T17:20:57.517Z,21.83
2018-11-06T17:23:30.531Z,19.23
2018-11-06T17:26:03.172Z,18.60
2018-11-06T17:28:36.250Z,18.80
2018-11-06T17:31:08.846Z,16.90
2018-11-06T17:33:41.337Z,13.53
2018-11-06T17:36:13.861Z,11.20
2018-11-06T17:38:46.449Z,13.40
2018-11-06T17:41:19.497Z,13.70
2018-11-06T17:43:52.273Z,15.30
2018-11-06T17:46:24.780Z,13.30
2018-11-06T17:48:57.453Z,12.77
2018-11-06T17:51:30.334Z,13.30
2018-11-06T17:54:03.188Z,13.03
2018-11-06T17:56:36.204Z,13.30
2018-11-06T17:59:08.783Z,15.00
2018-11-06T18:01:41.877Z,14.13
2018-11-06T18:04:14.886Z,12.37
2018-11-06T18:06:47.507Z,15.73
2018-11-06T18:09:20.542Z,17.03
2018-11-06T18:11:53.742Z,11.30
2018-11-06T18:14:26.559Z,14.00
2018-11-06T18:16:59.259Z,15.30
2018-11-06T18:19:32.867Z,14.40
2018-11-06T18:22:05.548Z,18.07
2018-11-06T18:24:38.323Z,11.60
2018-11-06T18:27:11.038Z,11.60
2018-11-06T18:29:43.719Z,12.53
2018-11-06T18:32:16.689Z,8.93
2018-11-06T18:34:49.749Z,10.50
2018-11-06T18:37:22.613Z,17.07
2018-11-06T18:39:55.765Z,11.83
2018-11-06T18:42:28.641Z,9.87
2018-11-06T18:45:01.459Z,9.03
2018-11-06T18:47:34.312Z,9.90
2018-11-06T18:50:07.996Z,7.73
2018-11-06T18:52:40.989Z,10.50
2018-11-06T18:55:13.462Z,8.63
2018-11-06T18:57:46.445Z,12.07
2018-11-06T19:00:21.105Z,7.10
2018-11-06T19:02:54.453Z,9.90
2018-11-06T19:05:27.467Z,9.87
2018-11-06T19:08:00.673Z,7.27
2018-11-06T19:10:33.478Z,11.20
2018-11-06T19:13:06.614Z,12.47
2018-11-06T19:15:39.768Z,11.60
2018-11-06T19:18:12.382Z,10.33
2018-11-06T19:20:45.382Z,7.40
2018-11-06T19:23:17.886Z,7.53
2018-11-06T19:25:50.512Z,8.90
2018-11-06T19:28:22.761Z,13.07
2018-11-06T19:30:55.145Z,11.10
2018-11-06T19:33:27.877Z,8.43
2018-11-06T19:36:00.349Z,6.97
2018-11-06T19:38:33.118Z,5.47
2018-11-06T19:41:06.183Z,7.50
2018-11-06T19:43:39.323Z,6.97
2018-11-06T19:46:11.798Z,7.60
2018-11-06T19:48:44.633Z,7.10
2018-11-06T19:51:17.305Z,9.40
2018-11-06T19:53:50.191Z,6.17
2018-11-06T19:56:23.694Z,5.10
2018-11-06T19:58:56.527Z,8.63
2018-11-06T20:01:29.671Z,8.57
2018-11-06T20:04:02.479Z,8.10
2018-11-06T20:06:35.317Z,10.73
2018-11-06T20:09:09.974Z,8.57
2018-11-06T20:11:42.810Z,11.07
2018-11-06T20:14:16.018Z,13.60
2018-11-06T20:16:48.379Z,8.47
2018-11-06T20:19:21.310Z,7.10
2018-11-06T20:21:54.637Z,10.57
2018-11-06T20:24:26.977Z,5.87
2018-11-06T20:26:59.352Z,4.40
2018-11-06T20:29:32.525Z,6.73
2018-11-06T20:32:05.392Z,6.57
2018-11-06T20:34:38.049Z,6.20
2018-11-06T20:37:10.401Z,9.00
2018-11-06T20:39:42.862Z,6.90
2018-11-06T20:42:15.669Z,10.70
2018-11-06T20:44:48.196Z,9.10
2018-11-06T20:47:22.928Z,7.07
2018-11-06T20:49:56.004Z,7.27
2018-11-06T20:52:28.719Z,8.73
2018-11-06T20:55:01.232Z,8.63
2018-11-06T20:57:34.917Z,8.83
2018-11-06T21:00:09.077Z,6.80
2018-11-06T21:02:41.920Z,5.50
2018-11-06T21:05:14.884Z,9.33
2018-11-06T21:07:48.356Z,10.50
2018-11-06T21:10:22.194Z,11.83
2018-11-06T21:12:55.206Z,9.23
2018-11-06T21:15:27.678Z,10.20
2018-11-06T21:18:00.782Z,9.27
2018-11-06T21:20:33.377Z,9.50
2018-11-06T21:23:06.239Z,7.10
2018-11-06T21:25:38.939Z,9.27
2018-11-06T21:28:11.589Z,6.57
2018-11-06T21:30:44.170Z,7.20
2018-11-06T21:33:16.856Z,5.27
2018-11-06T21:35:49.170Z,12.50
2018-11-06T21:38:21.457Z,7.87
2018-11-06T21:40:54.652Z,10.07
2018-11-06T21:43:27.463Z,5.50
2018-11-06T21:46:00.260Z,6.07
2018-11-06T21:48:33.165Z,5.97
2018-11-06T21:51:05.872Z,12.87
2018-11-06T21:53:38.504Z,7.60
2018-11-06T21:56:10.822Z,5.77
2018-11-06T21:58:43.530Z,9.87
2018-11-06T22:01:15.969Z,11.90
2018-11-06T22:10:37.008Z,9.40
2018-11-06T22:13:09.467Z,10.57
2018-11-06T22:15:41.957Z,8.63
2018-11-06T22:18:14.370Z,8.93
2018-11-06T22:20:46.940Z,4.80
2018-11-06T22:23:19.418Z,11.50
2018-11-06T22:25:52.461Z,7.83
2018-11-06T22:28:25.073Z,11.20
2018-11-06T22:30:57.586Z,5.40
2018-11-06T22:33:29.963Z,8.10
2018-11-06T22:36:02.793Z,9.80
2018-11-06T22:38:35.079Z,4.70
2018-11-06T22:41:07.723Z,9.20
2018-11-06T22:43:40.317Z,6.67
2018-11-06T22:46:12.805Z,6.87
2018-11-06T22:48:45.396Z,8.30
2018-11-06T22:51:18.257Z,7.93
2018-11-06T22:53:50.866Z,9.30
2018-11-06T22:56:23.429Z,5.73
2018-11-06T22:58:56.561Z,6.70
2018-11-06T23:01:28.850Z,11.87
2018-11-06T23:04:01.409Z,10.70
2018-11-06T23:06:33.792Z,10.63
2018-11-06T23:09:06.638Z,5.23
2018-11-06T23:11:39.222Z,7.03
2018-11-06T23:14:11.810Z,6.63
2018-11-06T23:16:44.408Z,6.40
2018-11-06T23:19:17.011Z,9.60
2018-11-06T23:21:49.833Z,10.40
2018-11-06T23:24:22.361Z,8.17
2018-11-06T23:26:54.623Z,6.17
2018-11-06T23:29:27.152Z,12.40
2018-11-06T23:31:59.595Z,10.40
2018-11-06T23:34:32.143Z,4.63
2018-11-06T23:37:04.990Z,5.60
2018-11-06T23:39:38.298Z,6.83
2018-11-06T23:42:10.738Z,10.03
2018-11-06T23:44:43.306Z,6.57
2018-11-06T23:47:16.007Z,5.80
2018-11-06T23:49:48.405Z,8.87
2018-11-06T23:52:20.697Z,7.47
2018-11-06T23:54:53.399Z,7.93
2018-11-06T23:57:26.241Z,5.73
